Time;durP1;ratioP1;P1;durP2;ratioP2;P2;SDS_P1;SDS_P2;PMS_P1;PMS_P2;Temp;Humidity;BMP_temperature;BMP_pressure;BME280_temperature;BME280_humidity;BME280_pressure;Samples;Min_cycle;Max_cycle;Signal;HPM_P1;HPM_P2
2021/08/07 17:37:57;;;;;;;3.78;0.55;;;23.60;60.90;;;;;;4927249;23;89708;-13
2021/08/07 17:40:22;;;;;;;6.38;0.85;;;23.60;60.80;;;;;;4821081;29;90020;-13
2021/08/07 17:42:49;;;;;;;6.07;0.90;;;23.70;60.70;;;;;;4822955;29;87295;-13
2021/08/07 17:45:15;;;;;;;2.70;0.65;;;23.70;60.60;;;;;;4810323;29;88102;-12
2021/08/07 17:47:41;;;;;;;5.63;0.55;;;23.80;60.50;;;;;;4828153;29;88230;-13
2021/08/07 17:50:07;;;;;;;4.18;0.55;;;23.80;60.30;;;;;;4827524;29;89251;-13
2021/08/07 17:52:33;;;;;;;2.72;0.70;;;23.90;60.20;;;;;;4827581;29;87136;-15
2021/08/07 17:54:59;;;;;;;11.52;1.08;;;23.90;60.10;;;;;;4827711;29;88229;-15
2021/08/07 17:57:25;;;;;;;7.57;0.75;;;24.00;60.10;;;;;;4828187;29;90699;-15
2021/08/07 17:59:50;;;;;;;1.85;0.32;;;24.10;60.00;;;;;;4827366;29;89635;-15
2021/08/07 18:02:18;;;;;;;2.80;0.45;;;24.10;60.00;;;;;;4826896;29;88414;-15
2021/08/07 18:04:44;;;;;;;2.05;0.38;;;24.10;59.90;;;;;;4827233;29;87347;-15
2021/08/07 18:07:10;;;;;;;5.53;0.50;;;24.10;60.00;;;;;;4826916;29;89468;-15
2021/08/07 18:09:36;;;;;;;1.90;0.43;;;24.20;60.30;;;;;;4826765;29;90171;-16
2021/08/07 18:12:02;;;;;;;1.33;0.30;;;24.20;60.40;;;;;;4828004;29;87138;-15
2021/08/07 18:14:28;;;;;;;2.15;0.32;;;24.20;60.50;;;;;;4828577;29;88833;-16
2021/08/07 18:16:54;;;;;;;2.85;0.30;;;24.20;60.70;;;;;;4826929;29;90975;-15
2021/08/07 18:19:19;;;;;;;1.48;0.40;;;24.20;60.70;;;;;;4827704;29;88811;-15
2021/08/07 18:21:47;;;;;;;6.75;0.82;;;24.20;60.50;;;;;;4828083;29;87121;-15
2021/08/07 18:24:13;;;;;;;3.20;0.30;;;24.20;60.50;;;;;;4828885;29;87028;-15
2021/08/07 18:26:39;;;;;;;1.17;0.20;;;24.20;60.40;;;;;;4828183;29;88549;-15
2021/08/07 18:29:04;;;;;;;4.13;0.40;;;24.30;60.50;;;;;;4829043;29;88357;-15
2021/08/07 18:31:30;;;;;;;2.03;0.30;;;24.20;60.70;;;;;;4826923;29;87315;-15
2021/08/07 18:33:56;;;;;;;4.95;0.20;;;24.30;60.90;;;;;;4826941;29;87955;-15
2021/08/07 18:36:21;;;;;;;2.22;0.28;;;24.20;60.90;;;;;;4826611;29;89163;-15
2021/08/07 18:38:48;;;;;;;1.10;0.55;;;24.30;60.90;;;;;;4826350;29;89106;-15
2021/08/07 18:41:14;;;;;;;0.77;0.20;;;24.30;60.80;;;;;;4828918;29;87284;-15
2021/08/07 18:43:40;;;;;;;3.25;0.25;;;24.30;60.70;;;;;;4829620;29;86834;-15
2021/08/07 18:46:08;;;;;;;2.58;0.60;;;24.30;60.70;;;;;;4827375;29;88325;-15
2021/08/07 18:48:34;;;;;;;2.33;0.32;;;24.30;60.60;;;;;;4827999;29;87417;-15
2021/08/07 18:51:00;;;;;;;0.90;0.40;;;24.30;60.60;;;;;;4828117;29;88078;-15
2021/08/07 18:53:25;;;;;;;1.20;0.30;;;24.30;60.60;;;;;;4826785;29;88158;-15
2021/08/07 18:55:52;;;;;;;1.05;0.25;;;24.30;60.60;;;;;;4828008;29;89319;-15
2021/08/07 18:58:21;;;;;;;2.35;0.40;;;24.30;60.60;;;;;;4825888;29;89059;-15
2021/08/07 19:00:48;;;;;;;1.17;0.20;;;24.30;60.60;;;;;;4827663;29;87293;-15
2021/08/07 19:03:16;;;;;;;1.15;0.20;;;24.30;60.50;;;;;;4825709;29;88356;-15
2021/08/07 19:05:46;;;;;;;0.82;0.20;;;24.30;60.30;;;;;;4825555;29;90582;-15
2021/08/07 19:08:12;;;;;;;1.90;0.30;;;24.30;60.30;;;;;;4826006;29;90110;-16
2021/08/07 19:10:38;;;;;;;2.55;0.32;;;24.40;60.50;;;;;;4827596;29;87116;-15
2021/08/07 19:13:04;;;;;;;0.82;0.30;;;24.40;60.40;;;;;;4826900;29;87044;-15
2021/08/07 19:15:29;;;;;;;0.95;0.38;;;24.40;60.40;;;;;;4825924;29;90140;-15
2021/08/07 19:17:55;;;;;;;2.15;0.43;;;24.40;60.20;;;;;;4827017;29;89936;-15
2021/08/07 19:20:21;;;;;;;1.63;0.50;;;24.40;60.20;;;;;;4826863;29;87376;-15
2021/08/07 19:22:46;;;;;;;2.65;0.38;;;24.30;60.10;;;;;;4826365;29;88352;-15
2021/08/07 19:25:15;;;;;;;1.17;0.32;;;24.30;60.00;;;;;;4826575;29;89394;-15
2021/08/07 19:27:40;;;;;;;2.35;0.50;;;24.30;59.90;;;;;;4825395;29;88988;-15
2021/08/07 19:30:07;;;;;;;0.60;0.20;;;24.30;59.90;;;;;;4826157;29;87480;-27
2021/08/07 19:32:32;;;;;;;1.95;0.25;;;24.30;59.80;;;;;;4826864;29;87032;-15
2021/08/07 19:34:58;;;;;;;1.55;0.30;;;24.30;59.70;;;;;;4826733;29;89411;-15
2021/08/07 19:37:24;;;;;;;1.48;0.30;;;24.30;59.70;;;;;;4825239;29;89174;-15
2021/08/07 19:39:50;;;;;;;6.07;0.20;;;24.30;59.60;;;;;;4825396;29;88876;-15
2021/08/07 19:42:17;;;;;;;3.65;0.40;;;24.30;59.60;;;;;;4825856;29;87095;-15
2021/08/07 19:44:42;;;;;;;1.02;0.30;;;24.30;59.50;;;;;;4827392;29;88298;-15
2021/08/07 19:47:08;;;;;;;1.27;0.40;;;24.30;59.40;;;;;;4826495;29;87753;-15
2021/08/07 19:49:34;;;;;;;3.05;0.68;;;24.30;59.40;;;;;;4826031;29;87075;-15
2021/08/07 19:52:00;;;;;;;1.38;0.20;;;24.40;59.40;;;;;;4825741;29;88518;-15
2021/08/07 19:54:26;;;;;;;1.30;0.20;;;24.40;59.40;;;;;;4824400;29;88889;-15
2021/08/07 19:56:55;;;;;;;0.30;0.20;;;24.40;59.50;;;;;;4828189;29;87351;-15
2021/08/07 19:59:20;;;;;;;0.90;0.30;;;24.40;59.50;;;;;;4827444;29;87329;-15
2021/08/07 20:01:46;;;;;;;0.82;0.30;;;24.30;59.40;;;;;;4823227;29;88260;-15
2021/08/07 20:04:15;;;;;;;1.00;0.30;;;24.40;59.50;;;;;;4807151;29;92831;-15
2021/08/07 20:06:41;;;;;;;4.82;0.50;;;24.40;59.40;;;;;;4822053;29;90865;-15
2021/08/07 20:09:07;;;;;;;0.75;0.40;;;24.40;59.30;;;;;;4809379;29;87877;-15
2021/08/07 20:11:36;;;;;;;2.22;0.20;;;24.40;59.30;;;;;;4807150;29;90311;-15
2021/08/07 20:14:02;;;;;;;1.17;0.30;;;24.40;59.30;;;;;;4790578;29;89552;-15
2021/08/07 20:16:28;;;;;;;0.68;0.20;;;24.50;59.30;;;;;;4808207;29;87355;-15
2021/08/07 20:18:54;;;;;;;2.63;0.45;;;24.40;59.30;;;;;;4822445;29;87057;-15
2021/08/07 20:21:21;;;;;;;0.85;0.30;;;24.40;59.20;;;;;;4814199;29;87995;-13
2021/08/07 20:23:47;;;;;;;1.08;0.20;;;24.40;59.30;;;;;;4827997;29;87628;-13
2021/08/07 20:26:13;;;;;;;1.67;0.40;;;24.40;59.40;;;;;;4825831;29;88121;-12
2021/08/07 20:28:41;;;;;;;2.55;0.30;;;24.40;59.50;;;;;;4825893;29;88102;-13
2021/08/07 20:31:07;;;;;;;1.23;0.40;;;24.40;59.60;;;;;;4825478;29;87073;-13
2021/08/07 20:33:33;;;;;;;3.15;0.30;;;24.40;59.70;;;;;;4824857;29;89576;-13
2021/08/07 20:36:01;;;;;;;0.80;0.30;;;24.40;59.70;;;;;;4825672;29;88884;-12
2021/08/07 20:38:27;;;;;;;3.75;0.57;;;24.30;59.80;;;;;;4827879;29;87156;-13
2021/08/07 20:40:53;;;;;;;1.02;0.32;;;24.30;59.90;;;;;;4825852;29;88029;-15
2021/08/07 20:43:18;;;;;;;3.80;0.47;;;24.20;60.00;;;;;;4826241;29;89285;-13
2021/08/07 20:45:44;;;;;;;2.80;0.35;;;24.20;60.10;;;;;;4828013;29;87901;-13
2021/08/07 20:48:11;;;;;;;2.95;0.35;;;24.10;60.20;;;;;;4827072;29;87406;-13
2021/08/07 20:50:36;;;;;;;1.90;0.47;;;24.10;60.40;;;;;;4825365;29;88140;-12
2021/08/07 20:53:02;;;;;;;5.57;0.30;;;24.10;60.50;;;;;;4824170;29;89972;-13
2021/08/07 20:55:28;;;;;;;2.03;0.20;;;24.10;60.60;;;;;;4824944;29;91621;-13
2021/08/07 20:57:54;;;;;;;1.67;0.43;;;24.00;60.60;;;;;;4826067;29;87004;-13
2021/08/07 21:00:20;;;;;;;0.98;0.30;;;24.00;60.70;;;;;;4827535;29;87150;-13
2021/08/07 21:02:46;;;;;;;1.58;0.20;;;24.00;60.70;;;;;;4825414;29;90650;-13
2021/08/07 21:05:13;;;;;;;1.48;0.40;;;24.00;60.70;;;;;;4825747;29;89123;-13
2021/08/07 21:07:39;;;;;;;2.72;0.32;;;23.90;60.70;;;;;;4827098;29;87451;-13
2021/08/07 21:10:07;;;;;;;3.03;0.30;;;23.90;60.80;;;;;;4825779;29;88621;-13
2021/08/07 21:12:34;;;;;;;1.77;0.30;;;23.90;60.90;;;;;;4826709;29;89307;-13
2021/08/07 21:15:00;;;;;;;0.88;0.40;;;23.90;60.90;;;;;;4826956;29;87160;-13
2021/08/07 21:17:26;;;;;;;2.05;0.22;;;23.90;60.90;;;;;;4824818;29;88055;-12
2021/08/07 21:19:52;;;;;;;1.65;0.30;;;23.80;60.90;;;;;;4824777;29;89804;-13
2021/08/07 21:22:17;;;;;;;3.38;0.40;;;23.80;61.00;;;;;;4826236;29;89129;-13
2021/08/07 21:24:43;;;;;;;1.25;0.30;;;23.80;61.00;;;;;;4825515;29;90853;-13
2021/08/07 21:27:12;;;;;;;0.80;0.30;;;23.80;61.10;;;;;;4827680;29;87207;-13
2021/08/07 21:29:43;;;;;;;1.10;0.30;;;23.80;61.10;;;;;;4825184;29;88010;-13
2021/08/07 21:32:10;;;;;;;2.05;0.30;;;23.80;61.20;;;;;;4825587;29;89346;-12
2021/08/07 21:34:35;;;;;;;1.65;0.32;;;23.70;61.20;;;;;;4827559;29;86677;-13
2021/08/07 21:37:01;;;;;;;0.68;0.20;;;23.70;61.20;;;;;;4824763;29;87219;-13
2021/08/07 21:39:27;;;;;;;2.58;0.55;;;23.70;61.30;;;;;;4824408;29;87356;-13
2021/08/07 21:41:52;;;;;;;1.85;0.20;;;23.70;61.40;;;;;;4824599;29;90268;-13
2021/08/07 21:44:18;;;;;;;2.33;0.38;;;23.70;61.40;;;;;;4825754;29;89287;-13
2021/08/07 21:46:44;;;;;;;0.50;0.30;;;23.60;61.40;;;;;;4825540;29;87129;-13
2021/08/07 21:49:09;;;;;;;1.52;0.38;;;23.60;61.50;;;;;;4825063;29;89173;-13
2021/08/07 21:51:35;;;;;;;2.25;0.40;;;23.70;61.60;;;;;;4824905;29;89765;-13
2021/08/07 21:54:01;;;;;;;1.10;0.30;;;23.60;61.50;;;;;;4824194;29;89989;-13
2021/08/07 21:56:26;;;;;;;1.17;0.50;;;23.60;61.60;;;;;;4824467;29;87548;-13
2021/08/07 21:58:52;;;;;;;1.02;0.30;;;23.60;61.60;;;;;;4825033;29;88237;-13
2021/08/07 22:01:17;;;;;;;0.40;0.30;;;23.60;61.70;;;;;;4824822;29;89156;-13
2021/08/07 22:03:45;;;;;;;1.10;0.20;;;23.60;61.70;;;;;;4824850;29;89181;-13
2021/08/07 22:06:14;;;;;;;0.57;0.20;;;23.60;61.70;;;;;;4825391;29;88054;-13
2021/08/07 22:08:39;;;;;;;0.88;0.35;;;23.50;61.70;;;;;;4824066;29;87152;-13
2021/08/07 22:11:05;;;;;;;1.20;0.20;;;23.50;61.70;;;;;;4823752;29;89202;-13
2021/08/07 22:13:30;;;;;;;0.20;0.20;;;23.60;61.80;;;;;;4823906;29;88899;-13
2021/08/07 22:15:59;;;;;;;0.45;0.20;;;23.50;61.70;;;;;;4821274;29;87388;-13
2021/08/07 22:18:24;;;;;;;0.60;0.40;;;23.60;61.80;;;;;;4804026;29;88563;-15
2021/08/07 22:20:52;;;;;;;0.95;0.32;;;23.50;61.70;;;;;;4805300;29;88572;-13
2021/08/07 22:23:26;;;;;;;0.98;0.20;;;23.50;61.80;;;;;;4807703;29;87187;-13
2021/08/07 22:25:53;;;;;;;0.68;0.40;;;23.50;61.70;;;;;;4810338;29;87948;-13
2021/08/07 22:28:24;;;;;;;1.73;0.35;;;23.50;61.80;;;;;;4824570;29;88169;-13
2021/08/07 22:30:49;;;;;;;2.45;0.32;;;23.50;61.80;;;;;;4828581;29;88475;-13
2021/08/07 22:33:20;;;;;;;0.40;0.30;;;23.50;61.80;;;;;;4827902;29;91839;-13
2021/08/07 22:35:48;;;;;;;0.93;0.30;;;23.50;61.80;;;;;;4828225;29;87095;-13
2021/08/07 22:38:13;;;;;;;1.60;0.30;;;23.50;61.90;;;;;;4827962;29;87146;-13
2021/08/07 22:40:39;;;;;;;0.73;0.40;;;23.50;61.90;;;;;;4826725;29;89314;-13
2021/08/07 22:43:05;;;;;;;2.00;0.30;;;23.50;61.90;;;;;;4828017;29;89122;-13
2021/08/07 22:45:31;;;;;;;1.35;0.30;;;23.50;61.90;;;;;;4828371;29;87596;-13
2021/08/07 22:47:57;;;;;;;0.65;0.45;;;23.50;61.90;;;;;;4827884;29;88244;-13
2021/08/07 22:50:25;;;;;;;0.40;0.22;;;23.40;61.80;;;;;;4828414;29;89206;-13
2021/08/07 22:52:51;;;;;;;0.95;0.30;;;23.40;61.90;;;;;;4829392;29;87603;-13
2021/08/07 22:55:17;;;;;;;0.80;0.40;;;23.40;61.80;;;;;;4827801;29;88730;-13
2021/08/07 22:57:43;;;;;;;0.70;0.32;;;23.40;61.90;;;;;;4829227;29;86973;-13
2021/08/07 23:00:10;;;;;;;1.02;0.40;;;23.40;61.90;;;;;;4827379;29;89137;-13
2021/08/07 23:02:36;;;;;;;0.30;0.20;;;23.40;61.90;;;;;;4828385;29;89663;-13
2021/08/07 23:05:02;;;;;;;0.75;0.25;;;23.40;61.90;;;;;;4827262;29;87783;-13
2021/08/07 23:07:27;;;;;;;0.30;0.20;;;23.40;61.90;;;;;;4828150;29;87455;-13
2021/08/07 23:09:53;;;;;;;0.50;0.30;;;23.40;62.00;;;;;;4826319;29;91037;-13
2021/08/07 23:12:19;;;;;;;1.45;0.30;;;23.40;61.90;;;;;;4827734;29;87925;-13
2021/08/07 23:14:44;;;;;;;0.30;0.30;;;23.40;62.00;;;;;;4827448;29;87121;-13
2021/08/07 23:17:10;;;;;;;1.38;0.30;;;23.40;62.00;;;;;;4826630;29;89669;-13
2021/08/07 23:19:38;;;;;;;1.55;0.30;;;23.40;61.90;;;;;;4825908;29;90502;-13
2021/08/07 23:22:04;;;;;;;0.85;0.35;;;23.40;62.00;;;;;;4826496;29;90080;-13
2021/08/07 23:24:29;;;;;;;0.60;0.20;;;23.40;62.00;;;;;;4827109;29;87067;-12
2021/08/07 23:26:55;;;;;;;0.30;0.30;;;23.40;62.00;;;;;;4826641;29;88115;-13
2021/08/07 23:29:21;;;;;;;0.68;0.35;;;23.40;62.00;;;;;;4826634;29;90311;-13
2021/08/07 23:31:46;;;;;;;1.33;0.40;;;23.40;62.00;;;;;;4827517;29;89195;-13
2021/08/07 23:34:12;;;;;;;1.10;0.30;;;23.40;62.00;;;;;;4826166;29;87422;-12
2021/08/07 23:36:38;;;;;;;0.55;0.30;;;23.40;62.00;;;;;;4827473;29;90082;-13
2021/08/07 23:39:04;;;;;;;0.93;0.30;;;23.40;62.00;;;;;;4826485;29;89113;-13
2021/08/07 23:41:30;;;;;;;0.30;0.20;;;23.40;62.10;;;;;;4827605;29;87914;-13
2021/08/07 23:43:55;;;;;;;1.65;0.50;;;23.40;62.00;;;;;;4826791;29;88212;-13
2021/08/07 23:46:21;;;;;;;0.63;0.30;;;23.40;62.00;;;;;;4827211;29;88940;-13
2021/08/07 23:48:47;;;;;;;0.60;0.30;;;23.40;62.00;;;;;;4826680;29;89060;-13
2021/08/07 23:51:13;;;;;;;0.45;0.20;;;23.40;62.10;;;;;;4826926;29;89200;-13
2021/08/07 23:53:39;;;;;;;0.50;0.20;;;23.30;62.00;;;;;;4828689;29;87096;-13
2021/08/07 23:56:05;;;;;;;0.47;0.20;;;23.40;62.10;;;;;;4826553;29;88261;-12
2021/08/07 23:58:31;;;;;;;1.67;0.40;;;23.30;62.00;;;;;;4826483;29;90565;-13
